sensor_id;sensor_type;location;lat;lon;timestamp;P1;durP1;ratioP1;P2;durP2;ratioP2
26113;SDS011;13966;48.828;9.064;2023-09-19T00:00:41;2.60;;;1.08;;
26113;SDS011;13966;48.828;9.064;2023-09-19T00:03:09;1.45;;;0.90;;
26113;SDS011;13966;48.828;9.064;2023-09-19T00:05:36;4.35;;;1.10;;
26113;SDS011;13966;48.828;9.064;2023-09-19T00:08:09;4.00;;;0.98;;
26113;SDS011;13966;48.828;9.064;2023-09-19T00:10:35;1.48;;;0.85;;
26113;SDS011;13966;48.828;9.064;2023-09-19T00:13:04;4.05;;;1.10;;
26113;SDS011;13966;48.828;9.064;2023-09-19T00:15:30;2.58;;;1.20;;
26113;SDS011;13966;48.828;9.064;2023-09-19T00:17:58;3.50;;;0.88;;
26113;SDS011;13966;48.828;9.064;2023-09-19T00:20:24;2.95;;;0.80;;
26113;SDS011;13966;48.828;9.064;2023-09-19T00:22:50;2.45;;;1.00;;
26113;SDS011;13966;48.828;9.064;2023-09-19T00:25:17;2.03;;;0.90;;
26113;SDS011;13966;48.828;9.064;2023-09-19T00:27:43;2.00;;;0.80;;
26113;SDS011;13966;48.828;9.064;2023-09-19T00:30:10;2.60;;;1.10;;
26113;SDS011;13966;48.828;9.064;2023-09-19T00:32:41;3.08;;;1.15;;
26113;SDS011;13966;48.828;9.064;2023-09-19T00:35:07;1.77;;;1.00;;
26113;SDS011;13966;48.828;9.064;2023-09-19T00:37:36;1.08;;;0.88;;
26113;SDS011;13966;48.828;9.064;2023-09-19T00:40:03;1.67;;;0.80;;
26113;SDS011;13966;48.828;9.064;2023-09-19T00:42:34;1.83;;;0.88;;
26113;SDS011;13966;48.828;9.064;2023-09-19T00:45:02;1.33;;;0.77;;
26113;SDS011;13966;48.828;9.064;2023-09-19T00:47:28;2.78;;;0.93;;
26113;SDS011;13966;48.828;9.064;2023-09-19T00:49:55;2.25;;;0.90;;
26113;SDS011;13966;48.828;9.064;2023-09-19T00:52:21;2.10;;;0.90;;
26113;SDS011;13966;48.828;9.064;2023-09-19T00:54:48;2.25;;;0.95;;
26113;SDS011;13966;48.828;9.064;2023-09-19T00:57:15;1.42;;;0.80;;
26113;SDS011;13966;48.828;9.064;2023-09-19T00:59:42;1.70;;;0.98;;
26113;SDS011;13966;48.828;9.064;2023-09-19T01:02:08;2.78;;;0.70;;
26113;SDS011;13966;48.828;9.064;2023-09-19T01:04:35;1.55;;;0.73;;
26113;SDS011;13966;48.828;9.064;2023-09-19T01:07:02;2.42;;;0.77;;
26113;SDS011;13966;48.828;9.064;2023-09-19T01:09:28;3.72;;;1.00;;
26113;SDS011;13966;48.828;9.064;2023-09-19T01:11:57;4.25;;;1.00;;
26113;SDS011;13966;48.828;9.064;2023-09-19T01:14:30;1.08;;;0.70;;
26113;SDS011;13966;48.828;9.064;2023-09-19T01:22:09;3.72;;;0.98;;
26113;SDS011;13966;48.828;9.064;2023-09-19T01:24:51;2.22;;;0.90;;
26113;SDS011;13966;48.828;9.064;2023-09-19T01:29:46;1.33;;;0.90;;
26113;SDS011;13966;48.828;9.064;2023-09-19T01:32:15;1.23;;;0.73;;
26113;SDS011;13966;48.828;9.064;2023-09-19T01:34:49;1.75;;;0.95;;
26113;SDS011;13966;48.828;9.064;2023-09-19T01:37:18;1.35;;;0.90;;
26113;SDS011;13966;48.828;9.064;2023-09-19T01:39:48;1.23;;;0.80;;
26113;SDS011;13966;48.828;9.064;2023-09-19T01:44:59;2.22;;;0.90;;
26113;SDS011;13966;48.828;9.064;2023-09-19T01:47:33;2.53;;;0.60;;
26113;SDS011;13966;48.828;9.064;2023-09-19T01:50:09;0.70;;;0.60;;
26113;SDS011;13966;48.828;9.064;2023-09-19T01:52:38;1.67;;;0.57;;
26113;SDS011;13966;48.828;9.064;2023-09-19T01:55:08;1.33;;;0.70;;
26113;SDS011;13966;48.828;9.064;2023-09-19T01:57:36;2.53;;;0.77;;
26113;SDS011;13966;48.828;9.064;2023-09-19T02:00:07;2.08;;;0.88;;
26113;SDS011;13966;48.828;9.064;2023-09-19T02:02:34;2.15;;;0.70;;
26113;SDS011;13966;48.828;9.064;2023-09-19T02:05:01;1.20;;;0.80;;
26113;SDS011;13966;48.828;9.064;2023-09-19T02:07:28;1.70;;;0.63;;
26113;SDS011;13966;48.828;9.064;2023-09-19T02:09:56;2.30;;;0.90;;
26113;SDS011;13966;48.828;9.064;2023-09-19T02:12:24;1.42;;;0.73;;
26113;SDS011;13966;48.828;9.064;2023-09-19T02:14:49;2.67;;;0.80;;
26113;SDS011;13966;48.828;9.064;2023-09-19T02:17:15;2.83;;;1.00;;
26113;SDS011;13966;48.828;9.064;2023-09-19T02:19:42;1.90;;;0.90;;
26113;SDS011;13966;48.828;9.064;2023-09-19T02:22:08;3.80;;;1.02;;
26113;SDS011;13966;48.828;9.064;2023-09-19T02:24:35;2.00;;;0.80;;
26113;SDS011;13966;48.828;9.064;2023-09-19T02:27:01;2.00;;;0.88;;
26113;SDS011;13966;48.828;9.064;2023-09-19T02:29:32;2.40;;;0.88;;
26113;SDS011;13966;48.828;9.064;2023-09-19T02:31:59;1.25;;;0.80;;
26113;SDS011;13966;48.828;9.064;2023-09-19T02:34:27;1.90;;;0.90;;
26113;SDS011;13966;48.828;9.064;2023-09-19T02:36:54;1.10;;;0.80;;
26113;SDS011;13966;48.828;9.064;2023-09-19T02:39:21;1.98;;;0.90;;
26113;SDS011;13966;48.828;9.064;2023-09-19T02:41:48;2.83;;;1.10;;
26113;SDS011;13966;48.828;9.064;2023-09-19T02:44:14;4.03;;;0.93;;
26113;SDS011;13966;48.828;9.064;2023-09-19T02:46:40;2.50;;;1.00;;
26113;SDS011;13966;48.828;9.064;2023-09-19T02:49:07;3.90;;;1.60;;
26113;SDS011;13966;48.828;9.064;2023-09-19T02:51:33;2.65;;;1.20;;
26113;SDS011;13966;48.828;9.064;2023-09-19T02:53:59;2.42;;;0.95;;
26113;SDS011;13966;48.828;9.064;2023-09-19T02:56:25;1.45;;;0.88;;
26113;SDS011;13966;48.828;9.064;2023-09-19T02:58:51;1.98;;;1.00;;
26113;SDS011;13966;48.828;9.064;2023-09-19T03:01:18;1.27;;;0.82;;
26113;SDS011;13966;48.828;9.064;2023-09-19T03:03:44;2.03;;;0.85;;
26113;SDS011;13966;48.828;9.064;2023-09-19T03:06:10;1.55;;;0.88;;
26113;SDS011;13966;48.828;9.064;2023-09-19T03:08:38;1.00;;;0.63;;
26113;SDS011;13966;48.828;9.064;2023-09-19T03:11:05;1.83;;;0.77;;
26113;SDS011;13966;48.828;9.064;2023-09-19T03:13:31;3.05;;;0.75;;
26113;SDS011;13966;48.828;9.064;2023-09-19T03:15:57;2.13;;;0.85;;
26113;SDS011;13966;48.828;9.064;2023-09-19T03:18:24;2.28;;;0.90;;
26113;SDS011;13966;48.828;9.064;2023-09-19T03:20:54;1.40;;;0.70;;
26113;SDS011;13966;48.828;9.064;2023-09-19T03:23:20;2.83;;;0.65;;
26113;SDS011;13966;48.828;9.064;2023-09-19T03:25:46;0.90;;;0.80;;
26113;SDS011;13966;48.828;9.064;2023-09-19T03:28:13;5.90;;;1.30;;
26113;SDS011;13966;48.828;9.064;2023-09-19T03:30:40;1.52;;;0.70;;
26113;SDS011;13966;48.828;9.064;2023-09-19T03:33:07;1.80;;;0.73;;
26113;SDS011;13966;48.828;9.064;2023-09-19T03:35:33;4.05;;;1.10;;
26113;SDS011;13966;48.828;9.064;2023-09-19T03:37:59;1.75;;;0.80;;
26113;SDS011;13966;48.828;9.064;2023-09-19T03:40:25;0.77;;;0.60;;
26113;SDS011;13966;48.828;9.064;2023-09-19T03:42:51;4.13;;;1.02;;
26113;SDS011;13966;48.828;9.064;2023-09-19T03:45:17;1.63;;;0.85;;
26113;SDS011;13966;48.828;9.064;2023-09-19T03:47:43;1.75;;;0.80;;
26113;SDS011;13966;48.828;9.064;2023-09-19T03:50:12;2.40;;;1.10;;
26113;SDS011;13966;48.828;9.064;2023-09-19T03:52:42;5.63;;;1.20;;
26113;SDS011;13966;48.828;9.064;2023-09-19T03:55:08;1.80;;;0.90;;
26113;SDS011;13966;48.828;9.064;2023-09-19T03:57:35;2.50;;;1.27;;
26113;SDS011;13966;48.828;9.064;2023-09-19T04:00:01;3.45;;;1.25;;
26113;SDS011;13966;48.828;9.064;2023-09-19T04:02:27;2.15;;;1.00;;
26113;SDS011;13966;48.828;9.064;2023-09-19T04:04:58;2.58;;;1.00;;
26113;SDS011;13966;48.828;9.064;2023-09-19T04:07:24;2.78;;;1.23;;
26113;SDS011;13966;48.828;9.064;2023-09-19T04:09:53;4.00;;;1.20;;
26113;SDS011;13966;48.828;9.064;2023-09-19T04:12:20;3.45;;;1.00;;
26113;SDS011;13966;48.828;9.064;2023-09-19T04:14:46;1.98;;;1.17;;
26113;SDS011;13966;48.828;9.064;2023-09-19T04:17:12;1.40;;;1.00;;
26113;SDS011;13966;48.828;9.064;2023-09-19T04:19:38;2.97;;;1.00;;
26113;SDS011;13966;48.828;9.064;2023-09-19T04:22:05;4.93;;;1.25;;
26113;SDS011;13966;48.828;9.064;2023-09-19T04:24:32;5.10;;;1.20;;
26113;SDS011;13966;48.828;9.064;2023-09-19T04:26:59;4.30;;;1.38;;
26113;SDS011;13966;48.828;9.064;2023-09-19T04:29:25;5.90;;;1.67;;
26113;SDS011;13966;48.828;9.064;2023-09-19T04:31:54;3.45;;;1.45;;
26113;SDS011;13966;48.828;9.064;2023-09-19T04:34:21;3.38;;;1.27;;
26113;SDS011;13966;48.828;9.064;2023-09-19T04:36:48;4.05;;;1.13;;
26113;SDS011;13966;48.828;9.064;2023-09-19T04:39:14;2.83;;;1.40;;
26113;SDS011;13966;48.828;9.064;2023-09-19T04:41:41;3.85;;;1.55;;
26113;SDS011;13966;48.828;9.064;2023-09-19T04:44:07;3.72;;;1.25;;
26113;SDS011;13966;48.828;9.064;2023-09-19T04:46:34;4.20;;;1.15;;
26113;SDS011;13966;48.828;9.064;2023-09-19T04:49:00;2.50;;;1.30;;
26113;SDS011;13966;48.828;9.064;2023-09-19T04:51:27;1.55;;;1.23;;
26113;SDS011;13966;48.828;9.064;2023-09-19T04:53:57;3.42;;;1.20;;
26113;SDS011;13966;48.828;9.064;2023-09-19T04:56:23;2.35;;;1.27;;
26113;SDS011;13966;48.828;9.064;2023-09-19T04:58:49;3.42;;;1.30;;
26113;SDS011;13966;48.828;9.064;2023-09-19T05:01:15;1.92;;;1.30;;
26113;SDS011;13966;48.828;9.064;2023-09-19T05:03:41;3.30;;;1.48;;
26113;SDS011;13966;48.828;9.064;2023-09-19T05:06:07;6.35;;;1.60;;
26113;SDS011;13966;48.828;9.064;2023-09-19T05:08:33;4.63;;;1.50;;
26113;SDS011;13966;48.828;9.064;2023-09-19T05:11:01;1.77;;;1.35;;
26113;SDS011;13966;48.828;9.064;2023-09-19T05:13:27;4.18;;;1.38;;
26113;SDS011;13966;48.828;9.064;2023-09-19T05:15:53;3.25;;;1.35;;
26113;SDS011;13966;48.828;9.064;2023-09-19T05:18:19;2.80;;;1.60;;
26113;SDS011;13966;48.828;9.064;2023-09-19T05:20:46;1.80;;;1.33;;
26113;SDS011;13966;48.828;9.064;2023-09-19T05:23:14;2.83;;;1.42;;
26113;SDS011;13966;48.828;9.064;2023-09-19T05:25:40;2.83;;;1.77;;
26113;SDS011;13966;48.828;9.064;2023-09-19T05:28:09;3.85;;;1.38;;
26113;SDS011;13966;48.828;9.064;2023-09-19T05:30:36;2.05;;;1.27;;
26113;SDS011;13966;48.828;9.064;2023-09-19T05:33:06;4.70;;;1.30;;
26113;SDS011;13966;48.828;9.064;2023-09-19T05:35:32;3.83;;;1.63;;
26113;SDS011;13966;48.828;9.064;2023-09-19T05:37:58;3.22;;;1.30;;
26113;SDS011;13966;48.828;9.064;2023-09-19T05:40:24;2.88;;;1.40;;
26113;SDS011;13966;48.828;9.064;2023-09-19T05:42:50;5.72;;;1.30;;
26113;SDS011;13966;48.828;9.064;2023-09-19T05:45:17;4.28;;;1.35;;
26113;SDS011;13966;48.828;9.064;2023-09-19T05:47:49;3.60;;;1.42;;
26113;SDS011;13966;48.828;9.064;2023-09-19T05:50:16;7.10;;;1.70;;
26113;SDS011;13966;48.828;9.064;2023-09-19T05:52:43;6.38;;;1.70;;
26113;SDS011;13966;48.828;9.064;2023-09-19T05:55:10;4.07;;;1.60;;
26113;SDS011;13966;48.828;9.064;2023-09-19T05:57:36;5.85;;;1.70;;
26113;SDS011;13966;48.828;9.064;2023-09-19T06:02:35;3.42;;;1.80;;
26113;SDS011;13966;48.828;9.064;2023-09-19T06:05:02;3.72;;;1.73;;
26113;SDS011;13966;48.828;9.064;2023-09-19T06:07:29;5.00;;;2.13;;
26113;SDS011;13966;48.828;9.064;2023-09-19T06:10:01;2.70;;;1.75;;
26113;SDS011;13966;48.828;9.064;2023-09-19T06:12:27;3.30;;;1.92;;
26113;SDS011;13966;48.828;9.064;2023-09-19T06:14:55;5.22;;;1.75;;
26113;SDS011;13966;48.828;9.064;2023-09-19T06:17:21;3.45;;;1.73;;
26113;SDS011;13966;48.828;9.064;2023-09-19T06:19:47;5.00;;;1.65;;
26113;SDS011;13966;48.828;9.064;2023-09-19T06:22:16;5.10;;;1.75;;
26113;SDS011;13966;48.828;9.064;2023-09-19T06:24:44;5.45;;;1.60;;
26113;SDS011;13966;48.828;9.064;2023-09-19T06:27:12;7.03;;;1.92;;
26113;SDS011;13966;48.828;9.064;2023-09-19T06:29:38;2.05;;;1.40;;
26113;SDS011;13966;48.828;9.064;2023-09-19T06:32:07;5.10;;;1.83;;
26113;SDS011;13966;48.828;9.064;2023-09-19T06:34:34;3.25;;;1.50;;
26113;SDS011;13966;48.828;9.064;2023-09-19T06:37:00;9.45;;;1.98;;
26113;SDS011;13966;48.828;9.064;2023-09-19T06:39:28;3.80;;;1.67;;
26113;SDS011;13966;48.828;9.064;2023-09-19T06:41:54;2.60;;;1.58;;
26113;SDS011;13966;48.828;9.064;2023-09-19T06:44:20;2.88;;;1.63;;
26113;SDS011;13966;48.828;9.064;2023-09-19T06:46:49;4.00;;;1.40;;
26113;SDS011;13966;48.828;9.064;2023-09-19T06:49:19;4.78;;;1.73;;
26113;SDS011;13966;48.828;9.064;2023-09-19T06:51:45;3.08;;;1.23;;
26113;SDS011;13966;48.828;9.064;2023-09-19T06:54:11;5.70;;;1.77;;
26113;SDS011;13966;48.828;9.064;2023-09-19T06:56:37;5.78;;;1.90;;
26113;SDS011;13966;48.828;9.064;2023-09-19T06:59:03;4.75;;;2.05;;
26113;SDS011;13966;48.828;9.064;2023-09-19T07:01:32;4.60;;;1.60;;
26113;SDS011;13966;48.828;9.064;2023-09-19T07:03:58;4.80;;;1.70;;
26113;SDS011;13966;48.828;9.064;2023-09-19T07:06:24;3.00;;;1.63;;
26113;SDS011;13966;48.828;9.064;2023-09-19T07:08:50;5.03;;;1.77;;
26113;SDS011;13966;48.828;9.064;2023-09-19T07:11:16;4.15;;;1.73;;
26113;SDS011;13966;48.828;9.064;2023-09-19T07:13:42;4.88;;;1.60;;
26113;SDS011;13966;48.828;9.064;2023-09-19T07:16:08;3.30;;;1.60;;
26113;SDS011;13966;48.828;9.064;2023-09-19T07:18:52;4.70;;;1.80;;
26113;SDS011;13966;48.828;9.064;2023-09-19T07:21:18;6.28;;;1.83;;
26113;SDS011;13966;48.828;9.064;2023-09-19T07:23:44;3.45;;;1.50;;
26113;SDS011;13966;48.828;9.064;2023-09-19T07:26:10;3.35;;;1.38;;
26113;SDS011;13966;48.828;9.064;2023-09-19T07:28:36;2.58;;;1.48;;
26113;SDS011;13966;48.828;9.064;2023-09-19T07:31:02;6.38;;;1.42;;
26113;SDS011;13966;48.828;9.064;2023-09-19T07:33:30;4.53;;;1.35;;
26113;SDS011;13966;48.828;9.064;2023-09-19T07:35:56;5.97;;;1.30;;
26113;SDS011;13966;48.828;9.064;2023-09-19T07:38:22;3.30;;;1.42;;
26113;SDS011;13966;48.828;9.064;2023-09-19T07:40:48;4.35;;;1.65;;
26113;SDS011;13966;48.828;9.064;2023-09-19T07:43:14;4.00;;;1.23;;
26113;SDS011;13966;48.828;9.064;2023-09-19T07:45:40;2.65;;;1.50;;
26113;SDS011;13966;48.828;9.064;2023-09-19T07:48:06;4.15;;;1.50;;
26113;SDS011;13966;48.828;9.064;2023-09-19T07:50:39;4.72;;;1.75;;
26113;SDS011;13966;48.828;9.064;2023-09-19T07:53:08;5.93;;;1.75;;
26113;SDS011;13966;48.828;9.064;2023-09-19T07:55:34;5.57;;;1.52;;
26113;SDS011;13966;48.828;9.064;2023-09-19T07:58:00;3.95;;;1.30;;
26113;SDS011;13966;48.828;9.064;2023-09-19T08:00:28;4.57;;;1.70;;
26113;SDS011;13966;48.828;9.064;2023-09-19T08:02:54;5.88;;;1.80;;
26113;SDS011;13966;48.828;9.064;2023-09-19T08:05:20;2.92;;;1.10;;
26113;SDS011;13966;48.828;9.064;2023-09-19T08:07:47;3.90;;;1.40;;
26113;SDS011;13966;48.828;9.064;2023-09-19T08:10:13;4.35;;;1.85;;
26113;SDS011;13966;48.828;9.064;2023-09-19T08:12:41;2.05;;;1.48;;
26113;SDS011;13966;48.828;9.064;2023-09-19T08:15:17;3.60;;;1.23;;
26113;SDS011;13966;48.828;9.064;2023-09-19T08:17:47;2.63;;;1.30;;
26113;SDS011;13966;48.828;9.064;2023-09-19T08:20:13;4.18;;;1.35;;
26113;SDS011;13966;48.828;9.064;2023-09-19T08:22:47;2.35;;;1.10;;
26113;SDS011;13966;48.828;9.064;2023-09-19T08:25:15;2.95;;;1.35;;
26113;SDS011;13966;48.828;9.064;2023-09-19T08:27:44;2.67;;;1.20;;
26113;SDS011;13966;48.828;9.064;2023-09-19T08:30:13;2.00;;;1.10;;
26113;SDS011;13966;48.828;9.064;2023-09-19T08:32:40;4.28;;;1.30;;
26113;SDS011;13966;48.828;9.064;2023-09-19T08:35:07;2.42;;;1.10;;
26113;SDS011;13966;48.828;9.064;2023-09-19T08:37:34;3.55;;;1.02;;
26113;SDS011;13966;48.828;9.064;2023-09-19T08:40:00;2.25;;;1.23;;
26113;SDS011;13966;48.828;9.064;2023-09-19T08:42:26;2.75;;;1.25;;
26113;SDS011;13966;48.828;9.064;2023-09-19T08:44:52;2.17;;;1.17;;
26113;SDS011;13966;48.828;9.064;2023-09-19T08:47:23;2.10;;;1.10;;
26113;SDS011;13966;48.828;9.064;2023-09-19T08:52:37;2.80;;;1.20;;
26113;SDS011;13966;48.828;9.064;2023-09-19T08:55:05;3.97;;;1.30;;
26113;SDS011;13966;48.828;9.064;2023-09-19T08:57:35;2.05;;;1.20;;
26113;SDS011;13966;48.828;9.064;2023-09-19T09:00:04;3.40;;;1.33;;
26113;SDS011;13966;48.828;9.064;2023-09-19T09:02:36;4.72;;;1.30;;
26113;SDS011;13966;48.828;9.064;2023-09-19T09:05:03;2.00;;;1.00;;
26113;SDS011;13966;48.828;9.064;2023-09-19T09:07:30;3.45;;;1.05;;
26113;SDS011;13966;48.828;9.064;2023-09-19T09:09:59;2.92;;;1.35;;
26113;SDS011;13966;48.828;9.064;2023-09-19T09:12:26;3.25;;;1.25;;
26113;SDS011;13966;48.828;9.064;2023-09-19T09:14:52;4.53;;;1.17;;
26113;SDS011;13966;48.828;9.064;2023-09-19T09:17:18;2.50;;;1.27;;
26113;SDS011;13966;48.828;9.064;2023-09-19T09:19:45;2.42;;;1.30;;
26113;SDS011;13966;48.828;9.064;2023-09-19T09:22:12;1.17;;;0.90;;
26113;SDS011;13966;48.828;9.064;2023-09-19T09:24:50;2.97;;;1.15;;
26113;SDS011;13966;48.828;9.064;2023-09-19T09:27:18;1.42;;;0.90;;
26113;SDS011;13966;48.828;9.064;2023-09-19T09:29:45;3.65;;;1.35;;
26113;SDS011;13966;48.828;9.064;2023-09-19T09:34:56;1.88;;;0.90;;
26113;SDS011;13966;48.828;9.064;2023-09-19T09:37:23;1.65;;;1.10;;
26113;SDS011;13966;48.828;9.064;2023-09-19T09:39:58;2.75;;;1.20;;
26113;SDS011;13966;48.828;9.064;2023-09-19T09:42:43;1.90;;;1.13;;
26113;SDS011;13966;48.828;9.064;2023-09-19T09:47:41;2.28;;;1.13;;
26113;SDS011;13966;48.828;9.064;2023-09-19T09:50:16;1.65;;;1.00;;
26113;SDS011;13966;48.828;9.064;2023-09-19T09:52:54;3.83;;;1.10;;
26113;SDS011;13966;48.828;9.064;2023-09-19T09:55:25;3.42;;;1.13;;
26113;SDS011;13966;48.828;9.064;2023-09-19T09:58:15;3.15;;;1.35;;
26113;SDS011;13966;48.828;9.064;2023-09-19T10:00:53;3.60;;;1.20;;
26113;SDS011;13966;48.828;9.064;2023-09-19T10:03:30;4.03;;;1.50;;
26113;SDS011;13966;48.828;9.064;2023-09-19T10:05:57;2.33;;;1.13;;
26113;SDS011;13966;48.828;9.064;2023-09-19T10:08:23;2.10;;;1.30;;
26113;SDS011;13966;48.828;9.064;2023-09-19T10:10:55;2.58;;;1.13;;
26113;SDS011;13966;48.828;9.064;2023-09-19T10:16:04;3.08;;;1.10;;
26113;SDS011;13966;48.828;9.064;2023-09-19T10:18:34;3.55;;;1.20;;
26113;SDS011;13966;48.828;9.064;2023-09-19T10:21:04;3.80;;;1.52;;
26113;SDS011;13966;48.828;9.064;2023-09-19T10:23:32;1.75;;;1.00;;
26113;SDS011;13966;48.828;9.064;2023-09-19T10:25:59;3.78;;;1.20;;
26113;SDS011;13966;48.828;9.064;2023-09-19T10:28:27;2.63;;;1.50;;
26113;SDS011;13966;48.828;9.064;2023-09-19T10:30:53;2.53;;;1.15;;
26113;SDS011;13966;48.828;9.064;2023-09-19T10:33:22;4.95;;;1.33;;
26113;SDS011;13966;48.828;9.064;2023-09-19T10:35:51;4.50;;;1.30;;
26113;SDS011;13966;48.828;9.064;2023-09-19T10:38:18;3.30;;;1.42;;
26113;SDS011;13966;48.828;9.064;2023-09-19T10:40:48;2.75;;;1.30;;
26113;SDS011;13966;48.828;9.064;2023-09-19T10:43:15;2.03;;;0.98;;
26113;SDS011;13966;48.828;9.064;2023-09-19T10:45:46;1.88;;;1.10;;
26113;SDS011;13966;48.828;9.064;2023-09-19T10:48:14;3.72;;;1.00;;
26113;SDS011;13966;48.828;9.064;2023-09-19T10:50:45;1.08;;;0.88;;
26113;SDS011;13966;48.828;9.064;2023-09-19T10:53:12;1.38;;;0.90;;
26113;SDS011;13966;48.828;9.064;2023-09-19T10:55:39;3.00;;;1.00;;
26113;SDS011;13966;48.828;9.064;2023-09-19T10:58:05;2.05;;;0.90;;
26113;SDS011;13966;48.828;9.064;2023-09-19T11:03:18;1.98;;;0.90;;
26113;SDS011;13966;48.828;9.064;2023-09-19T11:06:06;2.92;;;1.00;;
26113;SDS011;13966;48.828;9.064;2023-09-19T11:08:58;2.50;;;0.80;;
26113;SDS011;13966;48.828;9.064;2023-09-19T11:11:47;2.50;;;0.90;;
26113;SDS011;13966;48.828;9.064;2023-09-19T11:22:21;3.47;;;1.00;;
26113;SDS011;13966;48.828;9.064;2023-09-19T11:24:47;4.07;;;1.30;;
26113;SDS011;13966;48.828;9.064;2023-09-19T11:27:16;2.75;;;0.90;;
26113;SDS011;13966;48.828;9.064;2023-09-19T11:29:43;2.45;;;1.15;;
26113;SDS011;13966;48.828;9.064;2023-09-19T11:32:09;3.05;;;1.20;;
26113;SDS011;13966;48.828;9.064;2023-09-19T11:37:02;1.73;;;1.00;;
26113;SDS011;13966;48.828;9.064;2023-09-19T11:39:29;4.15;;;1.38;;
26113;SDS011;13966;48.828;9.064;2023-09-19T11:41:55;2.38;;;1.00;;
26113;SDS011;13966;48.828;9.064;2023-09-19T11:46:56;1.50;;;0.90;;
26113;SDS011;13966;48.828;9.064;2023-09-19T11:49:27;1.23;;;0.70;;
26113;SDS011;13966;48.828;9.064;2023-09-19T11:51:58;2.75;;;1.08;;
26113;SDS011;13966;48.828;9.064;2023-09-19T11:54:30;4.03;;;1.10;;
26113;SDS011;13966;48.828;9.064;2023-09-19T11:56:57;4.25;;;1.05;;
26113;SDS011;13966;48.828;9.064;2023-09-19T11:59:27;2.92;;;1.20;;
26113;SDS011;13966;48.828;9.064;2023-09-19T12:01:54;1.38;;;0.98;;
26113;SDS011;13966;48.828;9.064;2023-09-19T12:04:33;1.75;;;1.00;;
26113;SDS011;13966;48.828;9.064;2023-09-19T12:07:03;1.83;;;0.77;;
26113;SDS011;13966;48.828;9.064;2023-09-19T12:09:30;2.22;;;0.82;;
26113;SDS011;13966;48.828;9.064;2023-09-19T12:11:56;2.67;;;0.98;;
26113;SDS011;13966;48.828;9.064;2023-09-19T12:14:23;3.38;;;1.13;;
26113;SDS011;13966;48.828;9.064;2023-09-19T12:16:54;2.53;;;0.98;;
26113;SDS011;13966;48.828;9.064;2023-09-19T12:19:21;2.97;;;1.00;;
26113;SDS011;13966;48.828;9.064;2023-09-19T12:21:57;3.03;;;0.80;;
26113;SDS011;13966;48.828;9.064;2023-09-19T12:24:25;1.70;;;0.82;;
26113;SDS011;13966;48.828;9.064;2023-09-19T12:29:22;1.95;;;0.75;;
26113;SDS011;13966;48.828;9.064;2023-09-19T12:31:52;3.33;;;1.20;;
26113;SDS011;13966;48.828;9.064;2023-09-19T12:34:26;3.45;;;0.77;;
26113;SDS011;13966;48.828;9.064;2023-09-19T12:37:05;1.90;;;0.77;;
26113;SDS011;13966;48.828;9.064;2023-09-19T12:39:40;2.35;;;0.95;;
26113;SDS011;13966;48.828;9.064;2023-09-19T12:42:07;2.13;;;1.03;;
26113;SDS011;13966;48.828;9.064;2023-09-19T12:44:34;1.67;;;0.75;;
26113;SDS011;13966;48.828;9.064;2023-09-19T12:47:07;2.63;;;0.90;;
26113;SDS011;13966;48.828;9.064;2023-09-19T12:49:34;2.15;;;0.80;;
26113;SDS011;13966;48.828;9.064;2023-09-19T12:52:00;2.05;;;1.00;;
26113;SDS011;13966;48.828;9.064;2023-09-19T12:54:37;3.03;;;0.90;;
26113;SDS011;13966;48.828;9.064;2023-09-19T12:57:04;1.77;;;0.85;;
26113;SDS011;13966;48.828;9.064;2023-09-19T12:59:30;2.58;;;0.77;;
26113;SDS011;13966;48.828;9.064;2023-09-19T13:02:03;3.53;;;1.00;;
26113;SDS011;13966;48.828;9.064;2023-09-19T13:04:30;2.05;;;0.90;;
26113;SDS011;13966;48.828;9.064;2023-09-19T13:06:57;2.03;;;1.02;;
26113;SDS011;13966;48.828;9.064;2023-09-19T13:09:26;1.73;;;0.70;;
26113;SDS011;13966;48.828;9.064;2023-09-19T13:11:59;2.50;;;0.88;;
26113;SDS011;13966;48.828;9.064;2023-09-19T13:14:27;1.83;;;0.70;;
26113;SDS011;13966;48.828;9.064;2023-09-19T13:17:03;2.28;;;0.73;;
26113;SDS011;13966;48.828;9.064;2023-09-19T13:19:39;1.23;;;0.80;;
26113;SDS011;13966;48.828;9.064;2023-09-19T13:22:35;1.23;;;0.73;;
26113;SDS011;13966;48.828;9.064;2023-09-19T13:24:52;1.08;;;0.77;;
26113;SDS011;13966;48.828;9.064;2023-09-19T13:27:18;2.53;;;1.17;;
26113;SDS011;13966;48.828;9.064;2023-09-19T13:29:44;1.38;;;0.80;;
26113;SDS011;13966;48.828;9.064;2023-09-19T13:32:10;1.08;;;0.80;;
26113;SDS011;13966;48.828;9.064;2023-09-19T13:34:36;3.88;;;1.00;;
26113;SDS011;13966;48.828;9.064;2023-09-19T13:37:03;0.85;;;0.80;;
26113;SDS011;13966;48.828;9.064;2023-09-19T13:39:29;2.42;;;0.80;;
26113;SDS011;13966;48.828;9.064;2023-09-19T13:41:55;2.00;;;0.80;;
26113;SDS011;13966;48.828;9.064;2023-09-19T13:44:21;2.03;;;0.88;;
26113;SDS011;13966;48.828;9.064;2023-09-19T13:46:48;2.03;;;0.90;;
26113;SDS011;13966;48.828;9.064;2023-09-19T13:49:14;1.20;;;0.80;;
26113;SDS011;13966;48.828;9.064;2023-09-19T13:51:40;1.48;;;0.70;;
26113;SDS011;13966;48.828;9.064;2023-09-19T13:54:08;1.20;;;0.80;;
26113;SDS011;13966;48.828;9.064;2023-09-19T13:56:36;1.60;;;0.90;;
26113;SDS011;13966;48.828;9.064;2023-09-19T13:59:02;1.77;;;0.98;;
26113;SDS011;13966;48.828;9.064;2023-09-19T14:01:28;2.55;;;0.80;;
26113;SDS011;13966;48.828;9.064;2023-09-19T14:03:54;1.38;;;0.98;;
26113;SDS011;13966;48.828;9.064;2023-09-19T14:06:22;1.42;;;0.90;;
26113;SDS011;13966;48.828;9.064;2023-09-19T14:08:48;2.08;;;1.00;;
26113;SDS011;13966;48.828;9.064;2023-09-19T14:11:15;2.78;;;0.90;;
26113;SDS011;13966;48.828;9.064;2023-09-19T14:13:41;3.15;;;0.90;;
26113;SDS011;13966;48.828;9.064;2023-09-19T14:16:11;1.50;;;0.90;;
26113;SDS011;13966;48.828;9.064;2023-09-19T14:18:37;1.23;;;0.60;;
26113;SDS011;13966;48.828;9.064;2023-09-19T14:21:05;0.80;;;0.70;;
26113;SDS011;13966;48.828;9.064;2023-09-19T14:23:40;1.00;;;0.90;;
26113;SDS011;13966;48.828;9.064;2023-09-19T14:26:10;0.95;;;0.85;;
26113;SDS011;13966;48.828;9.064;2023-09-19T14:28:36;1.42;;;0.85;;
26113;SDS011;13966;48.828;9.064;2023-09-19T14:31:06;1.48;;;0.90;;
26113;SDS011;13966;48.828;9.064;2023-09-19T14:33:32;1.48;;;0.70;;
26113;SDS011;13966;48.828;9.064;2023-09-19T14:36:02;1.33;;;0.80;;
26113;SDS011;13966;48.828;9.064;2023-09-19T14:38:28;1.50;;;0.93;;
26113;SDS011;13966;48.828;9.064;2023-09-19T14:41:06;0.80;;;0.80;;
26113;SDS011;13966;48.828;9.064;2023-09-19T14:43:33;3.30;;;0.80;;
26113;SDS011;13966;48.828;9.064;2023-09-19T14:46:05;1.98;;;0.77;;
26113;SDS011;13966;48.828;9.064;2023-09-19T14:48:32;2.33;;;0.68;;
26113;SDS011;13966;48.828;9.064;2023-09-19T14:51:06;0.70;;;0.70;;
26113;SDS011;13966;48.828;9.064;2023-09-19T14:53:33;1.30;;;0.70;;
26113;SDS011;13966;48.828;9.064;2023-09-19T14:56:00;4.22;;;1.02;;
26113;SDS011;13966;48.828;9.064;2023-09-19T14:58:28;1.40;;;0.98;;
26113;SDS011;13966;48.828;9.064;2023-09-19T15:01:01;1.45;;;0.90;;
26113;SDS011;13966;48.828;9.064;2023-09-19T15:03:28;1.13;;;0.75;;
26113;SDS011;13966;48.828;9.064;2023-09-19T15:06:01;2.30;;;1.02;;
26113;SDS011;13966;48.828;9.064;2023-09-19T15:08:29;1.50;;;0.85;;
26113;SDS011;13966;48.828;9.064;2023-09-19T15:10:55;1.50;;;0.98;;
26113;SDS011;13966;48.828;9.064;2023-09-19T15:13:23;2.60;;;0.90;;
26113;SDS011;13966;48.828;9.064;2023-09-19T15:15:57;1.80;;;0.90;;
26113;SDS011;13966;48.828;9.064;2023-09-19T15:18:23;1.13;;;0.80;;
26113;SDS011;13966;48.828;9.064;2023-09-19T15:20:49;1.10;;;0.90;;
26113;SDS011;13966;48.828;9.064;2023-09-19T15:23:15;1.52;;;0.80;;
26113;SDS011;13966;48.828;9.064;2023-09-19T15:25:49;1.90;;;1.00;;
26113;SDS011;13966;48.828;9.064;2023-09-19T15:28:15;1.70;;;1.10;;
26113;SDS011;13966;48.828;9.064;2023-09-19T15:30:41;1.55;;;0.80;;
26113;SDS011;13966;48.828;9.064;2023-09-19T15:33:07;1.10;;;0.70;;
26113;SDS011;13966;48.828;9.064;2023-09-19T15:35:33;2.47;;;1.15;;